Time;durP1;ratioP1;P1;durP2;ratioP2;P2;SDS_P1;SDS_P2;PMS_P1;PMS_P2;Temp;Humidity;BMP_temperature;BMP_pressure;BME280_temperature;BME280_humidity;BME280_pressure;Samples;Min_cycle;Max_cycle;Signal;HPM_P1;HPM_P2
2022/05/17 00:00:38;;;;;;;2.10;1.90;;;17.50;45.10;;;;;;5221472;28;20570;-48
2022/05/17 00:03:08;;;;;;;3.10;2.20;;;17.50;45.40;;;;;;5218175;28;20195;-51
2022/05/17 00:05:39;;;;;;;2.77;1.73;;;17.40;45.50;;;;;;5226304;28;20179;-50
2022/05/17 00:08:10;;;;;;;3.00;2.23;;;17.40;45.40;;;;;;5216554;28;20186;-50
2022/05/17 00:10:42;;;;;;;4.60;2.50;;;17.40;45.30;;;;;;5224000;28;20269;-50
2022/05/17 00:13:14;;;;;;;6.20;2.33;;;17.40;45.80;;;;;;5227723;28;20493;-49
2022/05/17 00:15:48;;;;;;;4.47;1.97;;;17.40;45.20;;;;;;5213282;28;20970;-46
2022/05/17 00:18:21;;;;;;;7.30;2.13;;;17.40;45.00;;;;;;5225283;28;20552;-49
2022/05/17 00:20:51;;;;;;;2.50;1.93;;;17.40;45.00;;;;;;5226287;28;20437;-47
2022/05/17 00:23:22;;;;;;;2.43;2.23;;;17.40;45.20;;;;;;5216404;28;20826;-50
2022/05/17 00:25:53;;;;;;;2.03;1.93;;;17.40;45.10;;;;;;5252468;28;20530;-47
2022/05/17 00:28:25;;;;;;;3.47;2.20;;;17.40;45.30;;;;;;5228924;28;20758;-45
2022/05/17 00:30:56;;;;;;;2.80;2.13;;;17.40;45.20;;;;;;5218562;28;20226;-47
2022/05/17 00:33:27;;;;;;;8.97;1.90;;;17.40;45.30;;;;;;5225086;28;20590;-46
2022/05/17 00:35:58;;;;;;;2.63;2.10;;;17.40;45.70;;;;;;5228662;28;20524;-46
2022/05/17 00:38:29;;;;;;;3.70;1.53;;;17.40;45.30;;;;;;5223460;28;20518;-48
2022/05/17 00:40:59;;;;;;;6.63;2.50;;;17.40;45.30;;;;;;5233313;28;20178;-46
2022/05/17 00:46:38;;;;;;;3.87;2.07;;;17.30;45.40;;;;;;5236212;28;20182;-47
2022/05/17 00:49:12;;;;;;;2.57;2.37;;;17.30;45.60;;;;;;5214680;28;20857;-48
2022/05/17 00:51:44;;;;;;;2.57;2.23;;;17.30;46.30;;;;;;5205735;28;20764;-46
2022/05/17 00:54:17;;;;;;;5.00;2.17;;;17.30;46.80;;;;;;5218790;28;20445;-47
2022/05/17 00:57:23;;;;;;;10.83;2.37;;;17.20;47.80;;;;;;5226557;28;20471;-46
2022/05/17 00:59:57;;;;;;;3.50;2.60;;;17.20;48.10;;;;;;5194177;28;20450;-47
2022/05/17 01:02:29;;;;;;;10.10;3.03;;;17.10;48.40;;;;;;5219640;28;20473;-47
2022/05/17 01:05:03;;;;;;;5.20;2.10;;;17.00;48.40;;;;;;5216498;28;20453;-46
2022/05/17 01:07:41;;;;;;;2.23;1.57;;;17.00;48.70;;;;;;5227635;28;20939;-46
2022/05/17 01:10:12;;;;;;;2.43;2.20;;;17.00;48.90;;;;;;5226915;28;20441;-48
2022/05/17 01:12:43;;;;;;;3.90;2.60;;;17.00;48.90;;;;;;5218680;28;20949;-48
2022/05/17 01:15:14;;;;;;;3.03;2.60;;;17.00;49.10;;;;;;5205916;28;20191;-45
2022/05/17 01:17:45;;;;;;;2.10;1.97;;;16.90;49.20;;;;;;5228078;28;20223;-45
2022/05/17 01:20:15;;;;;;;3.43;2.50;;;16.90;49.30;;;;;;5216663;28;20929;-45
2022/05/17 01:22:45;;;;;;;2.73;1.70;;;16.90;49.70;;;;;;5229417;28;20211;-47
2022/05/17 01:25:16;;;;;;;4.67;2.20;;;16.90;49.90;;;;;;5230201;28;20232;-46
2022/05/17 01:27:53;;;;;;;3.33;1.77;;;16.80;50.20;;;;;;5230421;28;20206;-45
2022/05/17 01:30:26;;;;;;;3.00;1.97;;;16.80;50.90;;;;;;5215400;28;20301;-47
2022/05/17 01:32:57;;;;;;;2.70;1.77;;;16.70;50.90;;;;;;5225011;28;20477;-45
2022/05/17 01:35:28;;;;;;;5.80;2.00;;;16.80;51.10;;;;;;5204142;28;20441;-48
2022/05/17 01:38:00;;;;;;;2.70;2.00;;;16.70;51.90;;;;;;5224344;28;20211;-47
2022/05/17 01:40:30;;;;;;;6.60;2.53;;;16.70;52.60;;;;;;5234835;28;20172;-46
2022/05/17 01:43:01;;;;;;;2.57;2.17;;;16.60;53.20;;;;;;5217894;28;21011;-45
2022/05/17 01:45:31;;;;;;;2.33;2.13;;;16.50;54.00;;;;;;5240712;28;20187;-46
2022/05/17 01:48:02;;;;;;;3.83;1.80;;;16.50;53.70;;;;;;5219239;28;20555;-46
2022/05/17 01:50:34;;;;;;;2.37;1.93;;;16.40;54.10;;;;;;5234741;28;20191;-45
2022/05/17 01:53:05;;;;;;;1.90;1.80;;;16.40;54.50;;;;;;5222320;28;20281;-46
2022/05/17 01:55:36;;;;;;;3.07;2.13;;;16.40;54.40;;;;;;5227604;28;20441;-47
2022/05/17 01:58:06;;;;;;;7.10;2.63;;;16.30;56.00;;;;;;5223313;28;20471;-44
2022/05/17 02:00:37;;;;;;;5.23;2.13;;;15.90;57.70;;;;;;5218148;28;20444;-48
2022/05/17 02:03:08;;;;;;;1.60;1.50;;;15.60;61.60;;;;;;5224599;28;20203;-47
2022/05/17 02:05:38;;;;;;;4.00;2.87;;;15.10;62.40;;;;;;5234326;28;20182;-47
2022/05/17 02:08:09;;;;;;;4.70;2.67;;;14.80;79.50;;;;;;5220782;28;20191;-46
2022/05/17 02:10:39;;;;;;;3.97;3.67;;;14.70;99.90;;;;;;5219908;28;20175;-46
2022/05/17 02:13:10;;;;;;;4.53;2.83;;;14.60;99.90;;;;;;5221269;28;20194;-46
2022/05/17 02:15:40;;;;;;;13.57;3.33;;;14.50;99.90;;;;;;5223193;28;20219;-47
2022/05/17 02:18:11;;;;;;;16.80;3.40;;;14.40;99.90;;;;;;5211918;28;20222;-48
2022/05/17 02:20:42;;;;;;;7.33;3.10;;;14.20;99.90;;;;;;5217564;28;20233;-48
2022/05/17 02:23:12;;;;;;;7.20;3.00;;;14.10;99.90;;;;;;5242318;28;20967;-48
2022/05/17 02:25:43;;;;;;;10.30;4.37;;;14.00;99.90;;;;;;5227450;28;20281;-49
2022/05/17 02:28:14;;;;;;;8.07;4.00;;;13.90;99.90;;;;;;5214476;28;20817;-46
2022/05/17 02:30:45;;;;;;;3.60;3.20;;;13.70;99.90;;;;;;5237889;28;20545;-48
2022/05/17 02:33:16;;;;;;;4.40;2.40;;;13.50;99.90;;;;;;5234876;28;20210;-47
2022/05/17 02:35:46;;;;;;;6.83;3.27;;;13.50;99.90;;;;;;5225496;28;20448;-47
2022/05/17 02:38:17;;;;;;;6.47;3.93;;;13.50;99.90;;;;;;5230783;28;20464;-49
2022/05/17 02:40:47;;;;;;;11.57;4.00;;;13.50;99.90;;;;;;5211807;28;20643;-48
2022/05/17 02:43:18;;;;;;;5.77;4.50;;;13.50;99.90;;;;;;5226363;28;20207;-46
2022/05/17 02:45:49;;;;;;;3.10;2.90;;;13.50;99.90;;;;;;5220320;28;20642;-48
2022/05/17 02:48:19;;;;;;;11.17;3.50;;;13.50;99.90;;;;;;5225881;28;20183;-47
2022/05/17 02:50:50;;;;;;;3.77;3.40;;;13.60;99.90;;;;;;5221363;28;20183;-47
2022/05/17 02:53:21;;;;;;;4.03;3.27;;;13.70;99.90;;;;;;5212504;28;20209;-49
2022/05/17 02:55:52;;;;;;;4.83;3.40;;;13.70;99.90;;;;;;5217701;28;20214;-47
2022/05/17 02:58:22;;;;;;;7.57;4.20;;;13.70;99.90;;;;;;5226538;28;20559;-47
2022/05/17 03:00:53;;;;;;;6.70;3.60;;;13.80;99.90;;;;;;5238619;28;20224;-46
2022/05/17 03:03:23;;;;;;;6.80;3.87;;;13.90;99.90;;;;;;5221032;28;20203;-49
2022/05/17 03:05:54;;;;;;;15.20;4.17;;;13.90;99.90;;;;;;5222164;28;20189;-47
2022/05/17 03:08:24;;;;;;;3.77;3.47;;;13.90;99.90;;;;;;5216454;28;20234;-45
2022/05/17 03:10:55;;;;;;;4.90;4.47;;;13.90;99.90;;;;;;5222150;28;20237;-46
2022/05/17 03:13:26;;;;;;;3.17;2.97;;;13.80;99.90;;;;;;5225337;28;20210;-48
2022/05/17 03:15:56;;;;;;;4.07;3.00;;;13.70;99.90;;;;;;5227123;28;20191;-48
2022/05/17 03:18:27;;;;;;;4.80;3.20;;;13.50;99.90;;;;;;5240440;28;20618;-47
2022/05/17 03:20:57;;;;;;;4.30;3.90;;;13.40;99.90;;;;;;5220068;28;20678;-49
2022/05/17 03:23:28;;;;;;;6.90;3.13;;;13.30;99.90;;;;;;5225783;28;20203;-48
2022/05/17 03:25:58;;;;;;;8.33;3.43;;;13.30;99.90;;;;;;5226632;28;20270;-47
2022/05/17 03:28:29;;;;;;;5.43;3.97;;;13.40;99.90;;;;;;5223578;28;20179;-46
2022/05/17 03:30:59;;;;;;;3.63;3.40;;;13.40;99.90;;;;;;5239794;28;20593;-49
2022/05/17 03:33:30;;;;;;;6.13;3.60;;;13.40;99.90;;;;;;5241309;23;20344;-48
2022/05/17 03:36:00;;;;;;;7.93;3.93;;;13.40;99.90;;;;;;5238942;28;20185;-49
2022/05/17 03:38:31;;;;;;;4.13;3.80;;;13.30;99.90;;;;;;5213353;28;20264;-49
2022/05/17 03:41:02;;;;;;;3.60;3.30;;;13.40;99.90;;;;;;5216187;28;20198;-48
2022/05/17 03:43:33;;;;;;;9.47;4.03;;;13.40;99.90;;;;;;5220769;28;20235;-49
2022/05/17 03:46:07;;;;;;;8.20;4.63;;;13.30;99.90;;;;;;5225694;28;20468;-50
2022/05/17 03:48:38;;;;;;;9.43;3.77;;;13.30;99.90;;;;;;5219242;28;20192;-49
2022/05/17 03:51:17;;;;;;;10.10;3.87;;;13.30;99.90;;;;;;5205418;28;20434;-50
2022/05/17 03:53:50;;;;;;;4.87;3.83;;;13.20;99.90;;;;;;5217926;28;20305;-50
2022/05/17 03:56:20;;;;;;;6.47;4.57;;;13.20;99.90;;;;;;5211362;28;20448;-50
2022/05/17 03:58:51;;;;;;;12.63;5.33;;;13.10;99.90;;;;;;5223004;28;20835;-50
2022/05/17 04:01:21;;;;;;;15.27;4.97;;;13.10;99.90;;;;;;5216897;28;20258;-49
2022/05/17 04:03:52;;;;;;;7.13;4.70;;;13.10;99.90;;;;;;5223553;28;20195;-49
2022/05/17 04:06:22;;;;;;;5.80;5.30;;;13.00;99.90;;;;;;5206704;28;20178;-49
2022/05/17 04:08:53;;;;;;;8.20;4.90;;;13.00;99.90;;;;;;5223556;28;20290;-50
2022/05/17 04:11:23;;;;;;;5.80;4.93;;;13.00;99.90;;;;;;5215580;28;20188;-50
2022/05/17 04:13:54;;;;;;;8.50;5.70;;;13.00;99.90;;;;;;5209156;28;20196;-50
2022/05/17 04:16:24;;;;;;;10.53;7.17;;;13.10;99.90;;;;;;5221777;28;20186;-49
2022/05/17 04:18:55;;;;;;;19.63;5.80;;;13.00;99.90;;;;;;5222735;28;20551;-49
2022/05/17 04:21:26;;;;;;;7.20;4.67;;;12.90;99.90;;;;;;5222983;28;20183;-50
2022/05/17 04:23:57;;;;;;;8.17;4.50;;;12.80;99.90;;;;;;5212808;28;20217;-50
2022/05/17 04:26:27;;;;;;;7.80;5.90;;;12.70;99.90;;;;;;5214316;28;20798;-50
2022/05/17 04:28:58;;;;;;;8.07;5.57;;;12.80;99.90;;;;;;5217555;28;20191;-50
2022/05/17 04:31:29;;;;;;;6.17;5.37;;;12.70;99.90;;;;;;5209232;28;20179;-50
2022/05/17 04:34:00;;;;;;;7.97;5.00;;;12.70;99.90;;;;;;5221570;28;20214;-51
2022/05/17 04:36:32;;;;;;;13.80;6.23;;;12.80;99.90;;;;;;5215634;28;20441;-51
2022/05/17 04:39:03;;;;;;;4.67;4.10;;;12.70;99.90;;;;;;5219956;28;20472;-50
2022/05/17 04:41:33;;;;;;;6.40;5.90;;;12.70;99.90;;;;;;5220744;28;20434;-49
2022/05/17 04:44:04;;;;;;;6.20;4.53;;;12.70;99.90;;;;;;5213716;28;20573;-50
2022/05/17 04:46:34;;;;;;;5.17;4.87;;;12.70;99.90;;;;;;5221887;28;20691;-49
2022/05/17 04:49:07;;;;;;;7.93;4.67;;;12.70;99.90;;;;;;5219278;28;20215;-50
2022/05/17 04:51:38;;;;;;;13.00;5.50;;;12.70;99.90;;;;;;5216337;28;20178;-51
2022/05/17 04:54:08;;;;;;;5.77;5.27;;;12.70;99.90;;;;;;5210237;28;20976;-50
2022/05/17 04:56:39;;;;;;;10.83;4.03;;;12.70;99.90;;;;;;5212347;28;20206;-50
2022/05/17 04:59:10;;;;;;;5.93;5.27;;;12.70;99.90;;;;;;5216096;28;20199;-50
2022/05/17 05:01:40;;;;;;;7.73;5.77;;;12.70;99.90;;;;;;5213564;28;20257;-50
2022/05/17 05:04:11;;;;;;;12.07;6.20;;;12.60;99.90;;;;;;5209519;28;20199;-51
2022/05/17 05:06:42;;;;;;;16.17;6.97;;;12.60;99.90;;;;;;5219336;28;20248;-49
2022/05/17 05:09:13;;;;;;;14.30;8.97;;;12.50;99.90;;;;;;5205860;28;20445;-49
2022/05/17 05:11:43;;;;;;;10.23;7.63;;;12.50;99.90;;;;;;5221298;28;20261;-51
2022/05/17 05:14:14;;;;;;;15.57;9.00;;;12.50;99.90;;;;;;5214814;28;20572;-51
2022/05/17 05:16:45;;;;;;;19.60;9.93;;;12.40;99.90;;;;;;5222529;28;20273;-50
2022/05/17 05:19:16;;;;;;;18.37;10.43;;;12.40;99.90;;;;;;5218942;28;20210;-50
2022/05/17 05:21:46;;;;;;;12.70;8.63;;;12.40;99.90;;;;;;5220257;28;20179;-49
2022/05/17 05:24:17;;;;;;;22.27;10.87;;;12.30;99.90;;;;;;5206262;28;20480;-50
2022/05/17 05:26:47;;;;;;;25.23;12.10;;;12.30;99.90;;;;;;5210531;28;20199;-50
2022/05/17 05:29:18;;;;;;;15.63;9.83;;;12.30;99.90;;;;;;5215375;28;20697;-51
2022/05/17 05:31:48;;;;;;;30.50;11.67;;;12.30;99.90;;;;;;5205745;28;20200;-51
2022/05/17 05:34:19;;;;;;;14.57;10.80;;;12.30;99.90;;;;;;5223827;28;20781;-51
2022/05/17 05:36:49;;;;;;;23.57;11.50;;;12.30;99.90;;;;;;5221120;28;20187;-51
2022/05/17 05:39:21;;;;;;;17.07;12.13;;;12.30;99.90;;;;;;5215318;28;20558;-50
2022/05/17 05:41:52;;;;;;;18.53;10.20;;;12.30;99.90;;;;;;5223662;28;20198;-51
2022/05/17 05:44:23;;;;;;;23.63;10.57;;;12.20;99.90;;;;;;5222206;28;20457;-50
2022/05/17 05:46:54;;;;;;;15.80;10.13;;;12.10;99.90;;;;;;5224173;28;20446;-50
2022/05/17 05:49:24;;;;;;;14.10;8.87;;;11.90;99.90;;;;;;5220871;28;20436;-50
2022/05/17 05:51:55;;;;;;;18.80;9.30;;;12.00;99.90;;;;;;5209031;28;20214;-50
2022/05/17 05:54:26;;;;;;;12.97;9.17;;;12.10;99.90;;;;;;5219919;28;20669;-50
2022/05/17 05:57:00;;;;;;;13.50;8.77;;;12.30;99.90;;;;;;5209715;28;20454;-50
2022/05/17 05:59:31;;;;;;;13.40;10.10;;;12.40;99.90;;;;;;5221543;28;20209;-51
2022/05/17 06:02:03;;;;;;;18.20;8.97;;;12.50;99.90;;;;;;5222314;28;20454;-50
2022/05/17 06:04:34;;;;;;;31.93;12.90;;;12.60;99.90;;;;;;5216754;28;20965;-52
2022/05/17 06:07:05;;;;;;;18.30;10.30;;;12.70;99.90;;;;;;5222466;28;20463;-50
2022/05/17 06:09:36;;;;;;;20.03;11.10;;;12.70;99.90;;;;;;5221752;28;20210;-49
2022/05/17 06:12:07;;;;;;;21.13;10.73;;;12.70;99.90;;;;;;5221935;28;20437;-50
2022/05/17 06:14:38;;;;;;;23.90;10.93;;;12.60;99.90;;;;;;5222319;28;20253;-50
2022/05/17 06:17:08;;;;;;;27.43;10.47;;;12.60;99.90;;;;;;5225541;28;20437;-50
2022/05/17 06:19:39;;;;;;;12.37;8.47;;;12.70;99.90;;;;;;5222400;28;20233;-51
2022/05/17 06:22:09;;;;;;;27.53;12.27;;;12.80;99.90;;;;;;5214191;28;20667;-49
2022/05/17 06:24:40;;;;;;;19.17;9.67;;;12.80;99.90;;;;;;5218871;28;20636;-51
2022/05/17 06:27:10;;;;;;;11.87;8.07;;;12.70;99.90;;;;;;5220923;28;20198;-51
2022/05/17 06:29:41;;;;;;;14.50;9.97;;;12.70;99.90;;;;;;5222952;28;20252;-51
2022/05/17 06:32:14;;;;;;;19.40;11.50;;;12.70;99.90;;;;;;5223066;28;20226;-51
2022/05/17 06:34:45;;;;;;;12.60;9.23;;;12.80;99.90;;;;;;5223508;28;20245;-50
2022/05/17 06:37:16;;;;;;;15.57;8.73;;;12.80;99.90;;;;;;5221392;28;20454;-50
2022/05/17 06:39:46;;;;;;;11.67;8.53;;;12.90;99.90;;;;;;5224637;28;20210;-51
2022/05/17 06:42:17;;;;;;;18.17;9.30;;;13.10;99.90;;;;;;5217439;28;20607;-51
2022/05/17 06:44:47;;;;;;;8.57;7.70;;;13.10;99.90;;;;;;5221048;28;20206;-50
2022/05/17 06:47:18;;;;;;;13.90;7.63;;;13.20;99.90;;;;;;5218410;28;20187;-51
2022/05/17 06:49:49;;;;;;;14.80;9.17;;;13.30;99.90;;;;;;5224631;28;20195;-52
2022/05/17 06:52:23;;;;;;;13.70;8.13;;;13.40;99.90;;;;;;5230704;28;20647;-50
2022/05/17 06:54:55;;;;;;;12.13;7.53;;;13.40;99.90;;;;;;5221265;28;20186;-51
2022/05/17 06:57:26;;;;;;;12.87;7.53;;;13.30;99.90;;;;;;5226326;28;20461;-51
2022/05/17 06:59:59;;;;;;;11.10;8.70;;;13.30;99.90;;;;;;5219238;28;20468;-51
2022/05/17 07:02:30;;;;;;;22.30;9.37;;;13.50;99.90;;;;;;5225901;28;20294;-51
2022/05/17 07:05:01;;;;;;;6.23;5.53;;;13.40;99.90;;;;;;5220385;28;20521;-51
2022/05/17 07:07:32;;;;;;;11.50;5.40;;;13.30;99.90;;;;;;5226022;28;20179;-51
2022/05/17 07:13:07;;;;;;;10.40;6.90;;;13.50;99.90;;;;;;5220954;28;20478;-52
2022/05/17 07:15:43;;;;;;;6.40;5.80;;;13.80;99.90;;;;;;5218247;28;20445;-52
2022/05/17 07:18:17;;;;;;;9.50;6.70;;;14.00;99.90;;;;;;5211150;28;20452;-52
2022/05/17 07:20:48;;;;;;;10.10;6.77;;;14.40;99.90;;;;;;5228055;28;20516;-51
2022/05/17 07:23:19;;;;;;;7.87;6.27;;;14.80;99.90;;;;;;5222049;28;20468;-51
2022/05/17 07:25:50;;;;;;;8.87;6.23;;;14.80;99.90;;;;;;5226973;28;20425;-50
2022/05/17 07:28:22;;;;;;;14.27;10.57;;;14.70;99.90;;;;;;5228127;28;20186;-52
2022/05/17 07:30:53;;;;;;;22.10;11.43;;;15.40;99.90;;;;;;5226654;28;20565;-52
2022/05/17 07:33:24;;;;;;;14.73;7.00;;;16.50;99.90;;;;;;5226255;28;20479;-51
2022/05/17 07:35:54;;;;;;;19.80;8.53;;;17.00;99.90;;;;;;5226332;28;20272;-51
2022/05/17 07:38:25;;;;;;;10.90;6.17;;;17.40;99.90;;;;;;5226307;28;20205;-52
2022/05/17 07:40:56;;;;;;;9.20;6.33;;;18.10;99.90;;;;;;5227381;28;20175;-51
2022/05/17 07:43:27;;;;;;;6.97;5.00;;;18.10;99.90;;;;;;5224571;28;20450;-52
2022/05/17 07:45:57;;;;;;;9.10;6.50;;;18.70;99.90;;;;;;5229514;28;20198;-53
2022/05/17 07:48:28;;;;;;;9.50;4.83;;;19.10;99.90;;;;;;5216184;28;20252;-53
2022/05/17 07:50:59;;;;;;;10.43;6.13;;;19.00;99.90;;;;;;5222834;28;20579;-52
2022/05/17 07:53:30;;;;;;;12.03;5.90;;;19.00;99.90;;;;;;5222241;28;20234;-52
2022/05/17 07:56:03;;;;;;;10.17;5.63;;;19.30;99.90;;;;;;5234141;28;20535;-52
2022/05/17 07:58:33;;;;;;;9.90;6.30;;;19.40;99.90;;;;;;5217360;28;20496;-53
2022/05/17 08:01:04;;;;;;;9.97;6.40;;;19.70;99.90;;;;;;5206539;28;20888;-52
2022/05/17 08:03:34;;;;;;;10.40;6.60;;;19.70;99.90;;;;;;5218941;28;20238;-52
2022/05/17 08:06:05;;;;;;;11.50;6.20;;;19.80;99.90;;;;;;5220369;28;20226;-50
2022/05/17 08:08:36;;;;;;;9.23;5.10;;;19.70;99.90;;;;;;5224820;28;20215;-52
2022/05/17 08:11:07;;;;;;;8.17;5.90;;;19.90;99.90;;;;;;5222907;28;20186;-51
2022/05/17 08:13:39;;;;;;;18.40;6.93;;;20.00;99.90;;;;;;5220563;28;20226;-50
2022/05/17 08:16:09;;;;;;;9.10;6.47;;;20.20;99.90;;;;;;5220713;28;20448;-51
2022/05/17 08:18:40;;;;;;;18.83;7.97;;;20.40;99.90;;;;;;5219960;28;20549;-52
2022/05/17 08:21:10;;;;;;;12.03;6.97;;;20.80;99.90;;;;;;5217344;28;20175;-51
2022/05/17 08:23:41;;;;;;;10.27;6.93;;;21.00;99.90;;;;;;5216673;28;20802;-52
2022/05/17 08:29:01;;;;;;;14.43;8.13;;;20.90;99.90;;;;;;5219469;28;20187;-54
2022/05/17 08:31:32;;;;;;;8.60;4.83;;;21.00;99.90;;;;;;5219553;28;20783;-51
2022/05/17 08:34:02;;;;;;;17.33;5.87;;;21.30;99.90;;;;;;5210318;28;20294;-52
2022/05/17 08:36:33;;;;;;;13.67;5.90;;;21.90;99.90;;;;;;5218326;28;20529;-52
2022/05/17 08:39:04;;;;;;;8.23;5.40;;;22.00;99.90;;;;;;5217400;28;20207;-53
2022/05/17 08:41:39;;;;;;;8.33;4.80;;;22.40;99.90;;;;;;5219441;28;20643;-51
2022/05/17 08:44:13;;;;;;;7.83;5.77;;;22.80;99.90;;;;;;5230847;28;20456;-54
2022/05/17 08:46:55;;;;;;;10.90;5.40;;;22.70;98.50;;;;;;5216554;28;20937;-51
2022/05/17 08:49:29;;;;;;;9.40;4.87;;;22.60;98.80;;;;;;5220606;28;20506;-51
2022/05/17 08:52:11;;;;;;;4.80;4.43;;;22.50;98.10;;;;;;5221592;28;20529;-52
2022/05/17 08:54:55;;;;;;;10.03;5.57;;;22.60;99.10;;;;;;5216400;28;20496;-51
2022/05/17 08:57:39;;;;;;;5.60;4.13;;;22.40;95.50;;;;;;5214691;28;20437;-52
2022/05/17 09:00:21;;;;;;;12.67;4.70;;;22.20;95.50;;;;;;5216282;28;20454;-51
2022/05/17 09:03:16;;;;;;;12.67;4.73;;;22.30;95.40;;;;;;5217565;28;20546;-51
2022/05/17 09:06:09;;;;;;;4.43;3.90;;;22.10;93.00;;;;;;5222159;28;20432;-51
2022/05/17 09:09:06;;;;;;;5.53;3.87;;;22.20;94.00;;;;;;5238168;28;20430;-53
2022/05/17 09:11:46;;;;;;;7.07;4.47;;;21.90;93.50;;;;;;5218914;28;20450;-51
2022/05/17 09:14:32;;;;;;;6.63;4.70;;;21.90;94.60;;;;;;5220388;28;20465;-51
2022/05/17 09:17:24;;;;;;;7.93;4.60;;;21.60;93.30;;;;;;5215616;28;20437;-54
2022/05/17 09:19:55;;;;;;;6.10;5.17;;;21.40;94.60;;;;;;5218563;28;20461;-51
2022/05/17 09:22:25;;;;;;;10.83;4.10;;;21.30;95.80;;;;;;5221820;28;20429;-53
2022/05/17 09:24:59;;;;;;;5.80;4.50;;;21.20;96.80;;;;;;5220333;28;20435;-52
2022/05/17 09:27:34;;;;;;;15.90;9.97;;;21.80;97.80;;;;;;5217889;28;20187;-51
2022/05/17 09:30:06;;;;;;;18.43;5.53;;;22.20;94.20;;;;;;5211143;28;20495;-53
2022/05/17 09:32:43;;;;;;;8.67;4.97;;;21.60;94.10;;;;;;5216948;28;20565;-53
2022/05/17 09:35:20;;;;;;;9.97;6.50;;;21.60;95.60;;;;;;5220848;22;21052;-52
2022/05/17 09:37:54;;;;;;;18.07;12.30;;;21.90;95.20;;;;;;5202570;28;20819;-53
2022/05/17 09:40:31;;;;;;;6.03;5.43;;;22.30;94.90;;;;;;5186668;28;21000;-52
2022/05/17 09:43:07;;;;;;;9.17;5.37;;;22.10;94.00;;;;;;5181526;28;20588;-54
2022/05/17 09:45:50;;;;;;;6.00;4.30;;;22.10;93.70;;;;;;5182823;28;20437;-54
2022/05/17 09:48:29;;;;;;;5.37;4.37;;;22.40;92.70;;;;;;5200975;28;20533;-53
2022/05/17 09:53:51;;;;;;;4.53;4.13;;;22.80;91.40;;;;;;5200988;28;20461;-53
2022/05/17 09:56:26;;;;;;;5.43;4.87;;;22.60;88.10;;;;;;5167141;28;20438;-54
2022/05/17 09:58:57;;;;;;;6.57;4.63;;;22.30;90.30;;;;;;5180326;28;20478;-52
2022/05/17 10:01:38;;;;;;;10.23;4.30;;;22.10;89.60;;;;;;5201438;28;20961;-52
2022/05/17 10:04:17;;;;;;;5.93;3.80;;;22.00;89.70;;;;;;5182303;28;20725;-53
2022/05/17 10:06:56;;;;;;;3.87;3.40;;;21.70;87.50;;;;;;5185818;28;20435;-53
2022/05/17 10:09:30;;;;;;;5.33;3.40;;;21.80;87.50;;;;;;5180470;28;20533;-54
2022/05/17 10:12:18;;;;;;;10.23;4.23;;;22.00;88.50;;;;;;5201888;28;20460;-54
2022/05/17 10:14:53;;;;;;;4.60;3.73;;;21.90;84.50;;;;;;5173254;28;20463;-53
2022/05/17 10:17:42;;;;;;;10.07;4.60;;;22.30;85.60;;;;;;5188130;28;20734;-55
2022/05/17 10:20:34;;;;;;;4.50;4.10;;;22.60;81.50;;;;;;5204622;28;20438;-55
2022/05/17 10:23:36;;;;;;;5.80;4.40;;;22.70;78.40;;;;;;5189959;28;20893;-53
2022/05/17 10:26:15;;;;;;;5.43;4.17;;;23.10;76.80;;;;;;5203286;28;20954;-53
2022/05/17 10:28:50;;;;;;;11.83;3.93;;;23.10;73.00;;;;;;5190623;28;20437;-53
2022/05/17 10:31:29;;;;;;;4.93;4.37;;;23.10;73.40;;;;;;5189371;28;20434;-54
2022/05/17 10:34:33;;;;;;;6.03;3.70;;;23.10;75.40;;;;;;5199103;28;20538;-55
2022/05/17 10:37:18;;;;;;;5.67;5.10;;;23.20;72.10;;;;;;5206191;28;20434;-54
2022/05/17 10:40:01;;;;;;;13.07;4.40;;;23.10;71.80;;;;;;5184866;28;20457;-53
2022/05/17 10:42:32;;;;;;;4.67;3.50;;;23.10;71.20;;;;;;5188748;28;20433;-52
2022/05/17 10:45:05;;;;;;;4.47;3.03;;;23.00;71.80;;;;;;5183227;28;21076;-53
2022/05/17 10:47:49;;;;;;;12.40;4.00;;;23.10;71.60;;;;;;5204616;28;20476;-53
2022/05/17 10:50:44;;;;;;;7.60;3.97;;;23.20;70.80;;;;;;5186514;28;20534;-54
2022/05/17 10:53:18;;;;;;;4.00;3.63;;;22.80;71.40;;;;;;5193983;28;20445;-52
2022/05/17 10:56:07;;;;;;;3.47;3.27;;;22.70;71.10;;;;;;5204475;28;20434;-53
2022/05/17 10:59:01;;;;;;;4.33;3.83;;;22.60;72.30;;;;;;5207034;28;20470;-53
2022/05/17 11:01:41;;;;;;;6.70;4.43;;;22.90;72.30;;;;;;5191605;28;20446;-53
2022/05/17 11:04:37;;;;;;;7.23;3.47;;;22.70;68.50;;;;;;5189189;28;20454;-54
2022/05/17 11:07:16;;;;;;;2.80;2.60;;;22.60;68.90;;;;;;5205332;28;21102;-54
2022/05/17 11:10:07;;;;;;;8.90;4.47;;;22.70;68.00;;;;;;5208320;28;20846;-54
2022/05/17 11:12:46;;;;;;;3.50;3.20;;;22.80;65.80;;;;;;5159798;28;20465;-53
2022/05/17 11:15:24;;;;;;;5.90;3.67;;;22.70;65.80;;;;;;5209589;28;20458;-55
2022/05/17 11:18:01;;;;;;;6.03;3.47;;;22.40;62.90;;;;;;5203362;28;20478;-54
2022/05/17 11:20:43;;;;;;;5.33;3.87;;;22.20;64.10;;;;;;5192363;28;20441;-55
2022/05/17 11:23:55;;;;;;;3.37;3.17;;;22.40;64.70;;;;;;5207543;28;20427;-52
2022/05/17 11:26:37;;;;;;;5.40;3.70;;;22.80;64.30;;;;;;5210253;28;20526;-53
2022/05/17 11:29:39;;;;;;;27.10;13.70;;;22.80;63.60;;;;;;5205968;28;20426;-52
2022/05/17 11:32:29;;;;;;;26.53;12.80;;;23.00;65.20;;;;;;5176556;28;20434;-55
2022/05/17 11:35:04;;;;;;;4.77;4.10;;;23.30;63.60;;;;;;5207403;28;20469;-53
2022/05/17 11:37:36;;;;;;;9.00;3.90;;;23.40;61.60;;;;;;5193041;28;20442;-54
2022/05/17 11:40:10;;;;;;;7.77;3.93;;;23.50;62.00;;;;;;5207807;28;20446;-54
2022/05/17 11:45:56;;;;;;;7.20;4.50;;;23.30;65.60;;;;;;5200836;28;20524;-55
2022/05/17 11:48:53;;;;;;;10.23;5.50;;;23.50;66.50;;;;;;5208410;28;20945;-54
2022/05/17 11:51:28;;;;;;;8.10;4.47;;;23.20;67.60;;;;;;5205279;28;20994;-53
2022/05/17 11:54:03;;;;;;;5.00;3.17;;;23.00;67.90;;;;;;5208839;28;20467;-52
2022/05/17 11:56:38;;;;;;;3.37;2.97;;;23.00;66.50;;;;;;5193006;28;20444;-54
2022/05/17 11:59:12;;;;;;;5.40;3.13;;;22.80;65.00;;;;;;5208576;28;20465;-52
2022/05/17 12:01:45;;;;;;;7.73;4.00;;;22.90;63.60;;;;;;5203448;28;20472;-55
2022/05/17 12:04:22;;;;;;;5.13;3.40;;;23.00;65.00;;;;;;5189092;28;20925;-53
2022/05/17 12:06:53;;;;;;;11.20;3.83;;;23.20;61.20;;;;;;5206090;28;20438;-54
2022/05/17 12:09:24;;;;;;;3.07;2.80;;;23.40;59.20;;;;;;5180957;28;20445;-53
2022/05/17 12:12:08;;;;;;;3.87;3.20;;;23.40;56.30;;;;;;5183979;28;20802;-53
2022/05/17 12:15:12;;;;;;;3.90;2.90;;;23.40;56.10;;;;;;5187945;28;20207;-54
2022/05/17 12:18:03;;;;;;;11.03;4.00;;;23.60;56.60;;;;;;5198845;28;20442;-53
2022/05/17 12:21:03;;;;;;;5.43;3.17;;;23.60;54.90;;;;;;5208959;28;20513;-54
2022/05/17 12:23:52;;;;;;;5.07;3.80;;;23.50;56.30;;;;;;5196851;28;20540;-54
2022/05/17 12:26:48;;;;;;;3.63;2.70;;;23.70;57.60;;;;;;5182757;28;20444;-53
2022/05/17 12:32:19;;;;;;;7.10;3.73;;;24.50;56.40;;;;;;5202839;28;20550;-56
2022/05/17 12:34:53;;;;;;;4.90;3.60;;;24.40;54.70;;;;;;5185160;28;20469;-55
2022/05/17 12:37:26;;;;;;;3.30;3.00;;;24.40;56.00;;;;;;5200777;28;20813;-54
2022/05/17 12:43:02;;;;;;;3.73;3.30;;;24.20;52.10;;;;;;5204817;28;20449;-53
2022/05/17 12:45:45;;;;;;;3.70;3.40;;;24.00;52.30;;;;;;5204744;28;20486;-53
2022/05/17 12:48:37;;;;;;;4.47;3.30;;;24.00;52.10;;;;;;5186899;28;20989;-54
2022/05/17 12:51:09;;;;;;;6.83;3.37;;;23.80;51.50;;;;;;5183566;28;20443;-54
2022/05/17 12:53:46;;;;;;;5.20;4.37;;;23.60;51.20;;;;;;5205363;28;20458;-53
2022/05/17 12:56:20;;;;;;;3.30;3.00;;;23.80;51.80;;;;;;5200462;28;20443;-56
2022/05/17 12:58:54;;;;;;;3.90;2.40;;;23.50;51.50;;;;;;5203289;28;20485;-54
2022/05/17 13:01:32;;;;;;;6.33;2.77;;;23.50;52.00;;;;;;5202240;28;20447;-54
2022/05/17 13:04:12;;;;;;;7.13;3.63;;;23.50;51.50;;;;;;5204447;28;20555;-54
2022/05/17 13:06:46;;;;;;;6.83;2.33;;;23.50;51.60;;;;;;5201235;28;20435;-55
2022/05/17 13:09:23;;;;;;;7.70;2.27;;;23.70;51.90;;;;;;5186726;28;20445;-52
2022/05/17 13:11:56;;;;;;;4.03;3.67;;;23.60;51.00;;;;;;5180388;28;20447;-53
2022/05/17 13:14:30;;;;;;;8.80;3.17;;;23.50;50.00;;;;;;5197447;28;20828;-52
2022/05/17 13:17:17;;;;;;;10.83;3.90;;;23.50;50.50;;;;;;5183259;28;23243;-53
2022/05/17 13:19:54;;;;;;;2.83;2.53;;;23.50;50.20;;;;;;5201212;28;20588;-53
2022/05/17 13:22:25;;;;;;;8.37;4.93;;;23.40;51.40;;;;;;5202306;28;20453;-53
2022/05/17 13:25:03;;;;;;;5.50;3.40;;;23.30;51.60;;;;;;5185725;28;20548;-53
2022/05/17 13:27:43;;;;;;;2.60;2.50;;;23.10;52.40;;;;;;5199811;28;20434;-53
2022/05/17 13:30:28;;;;;;;2.93;2.73;;;23.10;52.00;;;;;;5203509;28;20438;-54
2022/05/17 13:33:01;;;;;;;3.53;3.27;;;23.00;53.10;;;;;;5178301;28;20438;-51
2022/05/17 13:35:34;;;;;;;6.90;3.13;;;23.10;52.70;;;;;;5199944;28;20962;-54
2022/05/17 13:38:23;;;;;;;3.67;3.07;;;23.30;52.40;;;;;;5202886;28;20538;-53
2022/05/17 13:40:56;;;;;;;4.40;3.03;;;23.50;53.50;;;;;;5201864;28;20438;-53